DRZA/AJY METAR and TAF weather

Enter ICAO airport designator
Station Type Date Time Source
DRZA METAR 2018/01/22 12:00 UTC NOAA

DRZA 221200Z 10020KT 4500 DU NSC 27/M06 Q1018


Station Type Date Time Source
DRZA Decoded METAR 2018/01/22 12:00 UTC NOAA

Agadez, Niger (DRZA) 16-58N 007-59E 502M
Jan 22, 2018 - 07:00 AM EST / 2018.01.22 1200 UTC
Wind: from the E (100 degrees) at 23 MPH (20 KT):0
Visibility: 2 mile(s):0
Weather: widespread dust
Temperature: 80 F (27 C)
Dew Point: 21 F (-6 C)
Relative Humidity: 10%
Pressure (altimeter): 30.06 in. Hg (1018 hPa)
ob: DRZA 221200Z 10020KT 4500 DU NSC 27/M06 Q1018
cycle: 12

Station Type Date Time Source
DRZA TAF 2018/01/22 12:21 UTC NOAA

TAF DRZA 221100Z 2212/2312 10020KT 4800 BLDU NSC
BECMG 2215/2217 08010KT 7000 NSW
TEMPO 2308/2314 10025KT 3500 BLDU


Example: see airport list